createdAt,value
2018-06-13T00:00:37.555Z,14.31
2018-06-13T00:01:37.614Z,14.31
2018-06-13T00:02:37.678Z,14.26
2018-06-13T00:03:37.733Z,14.26
2018-06-13T00:04:37.793Z,14.34
2018-06-13T00:05:37.853Z,14.39
2018-06-13T00:06:37.912Z,14.34
2018-06-13T00:07:37.972Z,14.38
2018-06-13T00:08:38.032Z,14.31
2018-06-13T00:09:38.090Z,14.38
2018-06-13T00:10:38.151Z,14.35
2018-06-13T00:11:38.213Z,14.27
2018-06-13T00:12:38.270Z,14.36
2018-06-13T00:13:38.330Z,14.35
2018-06-13T00:14:38.393Z,14.35
2018-06-13T00:15:38.448Z,14.31
2018-06-13T00:16:38.509Z,14.30
2018-06-13T00:17:38.568Z,14.35
2018-06-13T00:18:38.626Z,14.36
2018-06-13T00:19:38.687Z,14.41
2018-06-13T00:20:38.747Z,14.27
2018-06-13T00:21:38.806Z,14.35
2018-06-13T00:22:38.865Z,14.38
2018-06-13T00:23:38.925Z,14.41
2018-06-13T00:24:39.063Z,14.36
2018-06-13T00:25:39.046Z,14.36
2018-06-13T00:26:39.718Z,14.31
2018-06-13T00:27:39.746Z,14.39
2018-06-13T00:28:39.903Z,14.36
2018-06-13T00:29:39.856Z,14.42
2018-06-13T00:30:39.827Z,14.45
2018-06-13T00:31:40.153Z,14.38
2018-06-13T00:32:39.502Z,14.45
2018-06-13T00:33:39.524Z,14.49
2018-06-13T00:34:39.581Z,14.46
2018-06-13T00:35:39.641Z,14.52
2018-06-13T00:36:39.702Z,14.52
2018-06-13T00:37:39.760Z,14.49
2018-06-13T00:38:39.819Z,14.49
2018-06-13T00:39:39.880Z,14.54
2018-06-13T00:40:39.938Z,14.48
2018-06-13T00:41:39.999Z,14.53
2018-06-13T00:42:40.059Z,14.60
2018-06-13T00:43:40.118Z,14.60
2018-06-13T00:44:40.178Z,14.61
2018-06-13T00:45:40.238Z,14.61
2018-06-13T00:46:40.297Z,14.60
2018-06-13T00:47:40.356Z,14.48
2018-06-13T00:48:40.417Z,14.49
2018-06-13T00:49:40.477Z,14.46
2018-06-13T00:50:40.536Z,14.56
2018-06-13T00:51:40.595Z,14.56
2018-06-13T00:52:40.654Z,14.56
2018-06-13T00:53:40.716Z,14.54
2018-06-13T00:54:40.774Z,14.60
2018-06-13T00:55:40.835Z,14.61
2018-06-13T00:56:40.895Z,14.61
2018-06-13T00:57:40.966Z,14.57
2018-06-13T00:58:41.013Z,14.53
2018-06-13T00:59:41.088Z,14.48
2018-06-13T01:00:41.133Z,14.45
2018-06-13T01:01:41.196Z,14.54
2018-06-13T01:02:41.253Z,14.49
2018-06-13T01:03:41.313Z,14.52
2018-06-13T01:04:41.374Z,14.57
2018-06-13T01:05:41.433Z,14.46
2018-06-13T01:06:41.492Z,14.49
2018-06-13T01:07:41.552Z,14.53
2018-06-13T01:08:41.612Z,14.46
2018-06-13T01:09:41.671Z,14.42
2018-06-13T01:10:41.732Z,14.39
2018-06-13T01:11:41.789Z,14.42
2018-06-13T01:12:41.849Z,14.49
2018-06-13T01:13:41.910Z,14.53
2018-06-13T01:14:41.970Z,14.52
2018-06-13T01:15:42.029Z,14.49
2018-06-13T01:16:42.091Z,14.56
2018-06-13T01:17:42.149Z,14.56
2018-06-13T01:18:42.207Z,14.57
2018-06-13T01:19:42.268Z,14.61
2018-06-13T01:20:42.328Z,14.54
2018-06-13T01:21:42.388Z,14.63
2018-06-13T01:22:42.446Z,14.59
2018-06-13T01:23:42.510Z,14.52
2018-06-13T01:24:42.568Z,14.61
2018-06-13T01:25:42.627Z,14.56
2018-06-13T01:26:42.689Z,14.61
2018-06-13T01:27:42.746Z,14.46
2018-06-13T01:28:42.805Z,14.49
2018-06-13T01:29:42.865Z,14.56
2018-06-13T01:30:42.924Z,14.79
2018-06-13T01:31:42.984Z,14.66
2018-06-13T01:32:43.043Z,14.64
2018-06-13T01:33:43.105Z,14.63
2018-06-13T01:34:43.165Z,14.46
2018-06-13T01:35:43.224Z,14.52
2018-06-13T01:36:43.290Z,14.42
2018-06-13T01:37:43.344Z,14.52
2018-06-13T01:38:43.403Z,14.49
2018-06-13T01:39:43.462Z,14.53
2018-06-13T01:40:43.522Z,14.46
2018-06-13T01:41:43.581Z,14.57
2018-06-13T01:42:43.641Z,14.36
2018-06-13T01:43:43.700Z,14.36
2018-06-13T01:44:43.759Z,14.38
2018-06-13T01:45:43.821Z,14.39
2018-06-13T01:46:43.879Z,14.44
2018-06-13T01:47:43.940Z,14.56
2018-06-13T01:48:43.999Z,14.57
2018-06-13T01:49:44.059Z,14.49
2018-06-13T01:50:44.118Z,14.56
2018-06-13T01:51:44.380Z,14.54
2018-06-13T01:52:44.237Z,14.57
2018-06-13T01:53:44.298Z,14.49
2018-06-13T01:54:44.356Z,14.56
2018-06-13T01:55:44.417Z,14.49
2018-06-13T01:56:44.477Z,14.54
2018-06-13T01:57:44.538Z,14.78
2018-06-13T01:58:44.595Z,14.79
2018-06-13T01:59:44.655Z,14.75
2018-06-13T02:00:44.714Z,14.69
2018-06-13T02:01:44.774Z,14.78
2018-06-13T02:02:44.834Z,14.60
2018-06-13T02:03:44.894Z,14.78
2018-06-13T02:04:44.960Z,14.67
2018-06-13T02:05:45.014Z,15.01
2018-06-13T02:06:45.073Z,15.07
2018-06-13T02:07:45.133Z,15.12
2018-06-13T02:08:45.194Z,15.07
2018-06-13T02:09:45.900Z,15.13
2018-06-13T02:10:45.310Z,14.86
2018-06-13T02:11:45.370Z,14.63
2018-06-13T02:12:45.431Z,14.61
2018-06-13T02:13:45.491Z,14.63
2018-06-13T02:14:45.549Z,14.75
2018-06-13T02:15:45.609Z,15.00
2018-06-13T02:16:45.670Z,15.07
2018-06-13T02:17:45.729Z,15.15
2018-06-13T02:18:45.788Z,15.25
2018-06-13T02:19:45.848Z,15.22
2018-06-13T02:20:45.908Z,15.30
2018-06-13T02:21:45.968Z,15.09
2018-06-13T02:22:46.027Z,15.07
2018-06-13T02:23:46.087Z,14.97
2018-06-13T02:24:46.147Z,15.03
2018-06-13T02:25:46.209Z,15.05
2018-06-13T02:26:46.271Z,15.04
2018-06-13T02:27:46.327Z,15.00
2018-06-13T02:28:46.386Z,14.97
2018-06-13T02:29:46.447Z,14.95
2018-06-13T02:30:47.217Z,15.01
2018-06-13T02:31:47.177Z,15.01
2018-06-13T02:32:47.426Z,15.00
2018-06-13T02:33:47.240Z,14.83
2018-06-13T02:34:47.437Z,14.85
2018-06-13T02:35:46.804Z,14.93
2018-06-13T02:36:46.865Z,14.85
2018-06-13T02:37:46.926Z,14.90
2018-06-13T02:38:46.986Z,14.79
2018-06-13T02:39:47.044Z,14.75
2018-06-13T02:40:47.103Z,14.66
2018-06-13T02:41:47.164Z,14.67
2018-06-13T02:42:47.224Z,14.71
2018-06-13T02:43:47.289Z,14.69
2018-06-13T02:44:47.342Z,14.78
2018-06-13T02:45:47.405Z,14.79
2018-06-13T02:46:47.463Z,14.75
2018-06-13T02:47:47.524Z,14.64
2018-06-13T02:48:47.585Z,14.64
2018-06-13T02:49:47.642Z,14.66
2018-06-13T02:50:47.701Z,14.63
2018-06-13T02:51:47.762Z,14.63
2018-06-13T02:52:47.822Z,14.61
2018-06-13T02:53:47.886Z,14.64
2018-06-13T02:54:47.939Z,14.56
2018-06-13T02:55:48.000Z,14.61
2018-06-13T02:56:48.060Z,14.60
2018-06-13T02:57:48.124Z,14.60
2018-06-13T02:58:48.179Z,14.48
2018-06-13T02:59:48.239Z,14.53
2018-06-13T03:00:48.299Z,14.44
2018-06-13T03:01:48.360Z,14.48
2018-06-13T03:02:48.419Z,14.41
2018-06-13T03:03:48.478Z,14.42
2018-06-13T03:04:48.542Z,14.45
2018-06-13T03:05:48.598Z,14.46
2018-06-13T03:06:48.657Z,14.48
2018-06-13T03:07:48.715Z,14.42
2018-06-13T03:08:48.776Z,14.45
2018-06-13T03:09:48.837Z,14.49
2018-06-13T03:10:49.224Z,14.44
2018-06-13T03:11:48.956Z,14.44
2018-06-13T03:12:49.016Z,14.31
2018-06-13T03:13:49.075Z,14.36
2018-06-13T03:14:49.137Z,14.34
2018-06-13T03:15:49.196Z,14.36
2018-06-13T03:16:49.254Z,14.39
2018-06-13T03:17:49.316Z,14.36
2018-06-13T03:18:49.375Z,14.26
2018-06-13T03:19:49.433Z,14.21
2018-06-13T03:20:49.605Z,14.26
2018-06-13T03:21:49.553Z,14.21
2018-06-13T03:22:49.612Z,14.23
2018-06-13T03:23:49.670Z,14.24
2018-06-13T03:24:49.732Z,14.26
2018-06-13T03:25:49.792Z,14.24
2018-06-13T03:26:49.868Z,14.31
2018-06-13T03:27:50.164Z,14.38
2018-06-13T03:28:49.970Z,14.39
2018-06-13T03:29:50.030Z,14.36
2018-06-13T03:30:50.091Z,14.42
2018-06-13T03:31:50.154Z,14.44
2018-06-13T03:32:50.209Z,14.36
2018-06-13T03:33:50.269Z,14.44
2018-06-13T03:34:50.330Z,14.38
2018-06-13T03:35:50.390Z,14.26
2018-06-13T03:36:50.449Z,14.16
2018-06-13T03:37:50.508Z,14.12
2018-06-13T03:38:50.566Z,14.21
2018-06-13T03:39:50.628Z,14.19
2018-06-13T03:40:50.686Z,14.24
2018-06-13T03:41:50.748Z,14.20
2018-06-13T03:42:50.806Z,14.11
2018-06-13T03:43:50.868Z,14.17
2018-06-13T03:44:50.925Z,14.20
2018-06-13T03:45:50.986Z,14.13
2018-06-13T03:46:51.046Z,14.16
2018-06-13T03:47:51.104Z,14.05
2018-06-13T03:48:51.165Z,13.96
2018-06-13T03:49:51.224Z,14.02
2018-06-13T03:50:51.283Z,14.01
2018-06-13T03:51:51.342Z,13.99
2018-06-13T03:52:51.402Z,14.06
2018-06-13T03:53:51.462Z,14.09
2018-06-13T03:54:51.520Z,14.08
2018-06-13T03:55:51.582Z,14.08
2018-06-13T03:56:51.639Z,14.13
2018-06-13T03:57:51.700Z,14.21
2018-06-13T03:58:51.761Z,14.24
2018-06-13T03:59:51.824Z,14.20
2018-06-13T04:00:51.879Z,13.98
2018-06-13T04:01:51.961Z,14.06
2018-06-13T04:02:51.999Z,14.05
2018-06-13T04:03:52.058Z,14.24
2018-06-13T04:04:52.117Z,14.17
2018-06-13T04:05:52.178Z,14.11
2018-06-13T04:06:52.237Z,14.09
2018-06-13T04:07:52.301Z,13.88
2018-06-13T04:08:52.356Z,13.94
2018-06-13T04:09:52.417Z,14.04
2018-06-13T04:10:52.475Z,14.06
2018-06-13T04:11:52.933Z,14.06
2018-06-13T04:12:52.595Z,14.04
2018-06-13T04:13:52.688Z,14.09
2018-06-13T04:14:52.777Z,14.19
2018-06-13T04:15:52.815Z,14.16
2018-06-13T04:16:52.869Z,14.27
2018-06-13T04:17:53.254Z,14.21
2018-06-13T04:18:52.991Z,14.23
2018-06-13T04:19:53.418Z,13.87
2018-06-13T04:20:53.078Z,13.81
2018-06-13T04:21:53.165Z,13.86
2018-06-13T04:22:53.194Z,13.84
2018-06-13T04:23:53.311Z,13.86
2018-06-13T04:24:53.309Z,13.88
2018-06-13T04:25:53.423Z,13.91
2018-06-13T04:26:53.831Z,13.88
2018-06-13T04:27:53.521Z,14.04
2018-06-13T04:28:53.549Z,14.02
2018-06-13T04:29:57.598Z,14.06
2018-06-13T04:30:53.666Z,13.98
2018-06-13T04:31:53.726Z,13.87
2018-06-13T04:32:53.786Z,13.81
2018-06-13T04:33:54.945Z,13.68
2018-06-13T04:34:54.472Z,13.76
2018-06-13T04:35:54.625Z,13.73
2018-06-13T04:36:54.452Z,13.79
2018-06-13T04:37:54.694Z,13.88
2018-06-13T04:38:54.882Z,13.86
2018-06-13T04:39:54.687Z,13.99
2018-06-13T04:40:54.588Z,14.04
2018-06-13T04:41:54.967Z,14.05
2018-06-13T04:42:54.881Z,14.12
2018-06-13T04:43:54.498Z,14.24
2018-06-13T04:45:55.145Z,14.30
2018-06-13T04:46:54.667Z,14.24
2018-06-13T04:47:55.058Z,14.23
2018-06-13T04:48:54.745Z,14.30
2018-06-13T04:49:54.888Z,14.34
2018-06-13T04:50:54.954Z,14.30
2018-06-13T04:51:55.321Z,14.30
2018-06-13T04:52:55.024Z,14.39
2018-06-13T04:53:55.867Z,14.29
2018-06-13T04:54:55.096Z,14.35
2018-06-13T04:55:55.742Z,14.34
2018-06-13T04:56:55.219Z,14.41
2018-06-13T04:57:55.276Z,14.38
2018-06-13T04:58:55.335Z,14.30
2018-06-13T04:59:55.396Z,14.35
2018-06-13T05:00:55.454Z,14.35
2018-06-13T05:01:55.514Z,14.30
2018-06-13T05:02:55.573Z,14.38
2018-06-13T05:03:55.684Z,14.41
2018-06-13T05:04:55.795Z,14.39
2018-06-13T05:05:55.795Z,14.36
2018-06-13T05:06:55.867Z,14.49
2018-06-13T05:07:55.985Z,14.44
2018-06-13T05:08:55.982Z,14.49
2018-06-13T05:09:56.038Z,14.48
2018-06-13T05:10:56.436Z,14.52
2018-06-13T05:11:56.166Z,14.52
2018-06-13T05:12:56.175Z,14.60
2018-06-13T05:13:56.326Z,14.64
2018-06-13T05:14:56.346Z,14.66
2018-06-13T05:15:56.399Z,14.64
2018-06-13T05:16:56.460Z,14.61
2018-06-13T05:17:56.882Z,14.59
2018-06-13T05:18:56.532Z,14.48
2018-06-13T05:19:57.377Z,14.56
2018-06-13T05:20:57.276Z,14.52
2018-06-13T05:21:57.289Z,14.45
2018-06-13T05:22:56.772Z,14.56
2018-06-13T05:23:56.832Z,14.54
2018-06-13T05:24:56.980Z,14.56
2018-06-13T05:25:57.190Z,14.49
2018-06-13T05:26:57.344Z,14.60
2018-06-13T05:27:57.309Z,14.60
2018-06-13T05:28:57.169Z,14.60
2018-06-13T05:29:57.234Z,14.54
2018-06-13T05:30:57.253Z,14.53
2018-06-13T05:31:57.313Z,14.57
2018-06-13T05:32:57.374Z,14.57
2018-06-13T05:33:57.434Z,14.61
2018-06-13T05:34:57.493Z,14.79
2018-06-13T05:35:57.554Z,14.60
2018-06-13T05:36:57.615Z,14.75
2018-06-13T05:37:57.676Z,14.80
2018-06-13T05:38:57.735Z,14.86
2018-06-13T05:39:57.808Z,14.82
2018-06-13T05:40:57.857Z,14.85
2018-06-13T05:41:57.977Z,14.90
2018-06-13T05:42:57.977Z,14.80
2018-06-13T05:43:58.040Z,14.94
2018-06-13T05:44:58.097Z,14.93
2018-06-13T05:45:58.159Z,14.83
2018-06-13T05:46:58.216Z,14.93
2018-06-13T05:47:58.276Z,14.97
2018-06-13T05:48:58.339Z,15.09
2018-06-13T05:49:58.409Z,15.03
2018-06-13T05:50:58.457Z,14.98
2018-06-13T05:51:58.525Z,14.94
2018-06-13T05:52:58.583Z,14.87
2018-06-13T05:53:58.951Z,15.00
2018-06-13T05:54:58.750Z,15.09
2018-06-13T05:55:58.761Z,14.87
2018-06-13T05:56:58.821Z,15.04
2018-06-13T05:57:58.883Z,15.11
2018-06-13T05:58:59.019Z,15.22
2018-06-13T05:59:59.007Z,15.30
2018-06-13T06:00:59.064Z,15.38
2018-06-13T06:01:59.124Z,15.35
2018-06-13T06:02:59.188Z,15.31
2018-06-13T06:03:59.243Z,15.38
2018-06-13T06:04:59.304Z,15.31
2018-06-13T06:05:59.376Z,15.49
2018-06-13T06:06:59.951Z,15.43
2018-06-13T06:07:59.486Z,15.44
2018-06-13T06:08:59.867Z,15.48
2018-06-13T06:10:00.631Z,15.52
2018-06-13T06:10:59.668Z,15.56
2018-06-13T06:11:59.730Z,15.66
2018-06-13T06:12:59.790Z,15.62
2018-06-13T06:13:59.855Z,15.66
2018-06-13T06:14:59.912Z,15.53
2018-06-13T06:15:59.972Z,15.59
2018-06-13T06:17:00.038Z,15.64
2018-06-13T06:18:00.096Z,15.67
2018-06-13T06:19:00.155Z,15.73
2018-06-13T06:20:00.217Z,15.62
2018-06-13T06:21:00.277Z,15.56
2018-06-13T06:22:00.344Z,15.51
2018-06-13T06:23:01.295Z,15.62
2018-06-13T06:24:00.460Z,15.49
2018-06-13T06:25:00.521Z,15.62
2018-06-13T06:26:00.581Z,15.60
2018-06-13T06:27:00.656Z,15.64
2018-06-13T06:28:00.703Z,15.46
2018-06-13T06:29:00.764Z,15.56
2018-06-13T06:30:00.840Z,15.56
2018-06-13T06:31:01.299Z,15.53
2018-06-13T06:32:00.946Z,15.48
2018-06-13T06:33:01.008Z,15.64
2018-06-13T06:34:01.073Z,15.68
2018-06-13T06:35:01.146Z,15.60
2018-06-13T06:36:01.545Z,15.73
2018-06-13T06:37:01.326Z,15.60
2018-06-13T06:38:01.327Z,15.70
2018-06-13T06:39:01.375Z,15.78
2018-06-13T06:40:01.436Z,15.78
2018-06-13T06:41:01.496Z,15.73
2018-06-13T06:42:01.557Z,15.76
2018-06-13T06:43:01.978Z,15.66
2018-06-13T06:44:01.679Z,15.62
2018-06-13T06:45:01.740Z,15.81
2018-06-13T06:46:01.800Z,15.91
2018-06-13T06:47:01.879Z,15.99
2018-06-13T06:48:01.955Z,15.99
2018-06-13T06:49:01.985Z,16.01
2018-06-13T06:50:02.045Z,16.22
2018-06-13T06:51:02.107Z,16.40
2018-06-13T06:52:02.185Z,16.41
2018-06-13T06:53:02.701Z,16.47
2018-06-13T06:54:02.295Z,16.47
2018-06-13T06:55:02.390Z,16.40
2018-06-13T06:56:02.413Z,16.41
2018-06-13T06:57:02.481Z,16.52
2018-06-13T06:58:02.569Z,16.55
2018-06-13T06:59:02.650Z,16.45
2018-06-13T07:00:02.703Z,16.52
2018-06-13T07:01:03.105Z,16.55
2018-06-13T07:02:03.165Z,16.52
2018-06-13T07:03:02.891Z,16.52
2018-06-13T07:04:02.936Z,16.59
2018-06-13T07:05:02.968Z,16.57
2018-06-13T07:06:03.085Z,16.60
2018-06-13T07:07:03.091Z,16.69
2018-06-13T07:08:03.152Z,16.73
2018-06-13T07:09:03.215Z,16.69
2018-06-13T07:10:03.757Z,16.69
2018-06-13T07:11:03.656Z,16.67
2018-06-13T07:12:03.400Z,16.65
2018-06-13T07:13:03.465Z,16.63
2018-06-13T07:14:03.525Z,16.50
2018-06-13T07:15:03.586Z,16.47
2018-06-13T07:16:03.652Z,16.59
2018-06-13T07:17:03.711Z,16.55
2018-06-13T07:18:03.777Z,16.70
2018-06-13T07:19:03.958Z,16.81
2018-06-13T07:20:03.897Z,16.91
2018-06-13T07:21:03.958Z,17.00
2018-06-13T07:22:04.021Z,17.02
2018-06-13T07:23:04.082Z,17.06
2018-06-13T07:24:04.153Z,17.00
2018-06-13T07:25:04.206Z,16.99
2018-06-13T07:26:04.269Z,16.99
2018-06-13T07:27:04.331Z,17.14
2018-06-13T07:28:04.392Z,17.21
2018-06-13T07:29:04.456Z,17.18
2018-06-13T07:30:04.521Z,17.20
2018-06-13T07:31:04.580Z,17.21
2018-06-13T07:32:04.642Z,17.27
2018-06-13T07:33:04.705Z,17.03
2018-06-13T07:34:04.767Z,16.91
2018-06-13T07:35:04.828Z,16.75
2018-06-13T07:36:04.891Z,16.81
2018-06-13T07:37:04.954Z,16.84
2018-06-13T07:38:05.015Z,16.84
2018-06-13T07:39:05.077Z,16.84
2018-06-13T07:40:05.150Z,16.81
2018-06-13T07:41:05.202Z,16.92
2018-06-13T07:42:05.264Z,16.95
2018-06-13T07:43:05.325Z,17.12
2018-06-13T07:44:05.388Z,17.09
2018-06-13T07:45:05.463Z,17.12
2018-06-13T07:46:05.858Z,17.15
2018-06-13T07:47:05.573Z,17.17
2018-06-13T07:48:05.642Z,17.03
2018-06-13T07:49:05.698Z,17.02
2018-06-13T07:50:05.760Z,17.02
2018-06-13T07:51:05.823Z,17.28
2018-06-13T07:52:05.883Z,17.51
2018-06-13T07:53:05.946Z,17.53
2018-06-13T07:54:06.013Z,17.73
2018-06-13T07:55:06.078Z,17.86
2018-06-13T07:56:06.136Z,17.91
2018-06-13T07:57:06.196Z,17.95
2018-06-13T07:58:06.259Z,18.20
2018-06-13T07:59:06.320Z,18.10
2018-06-13T08:00:06.384Z,18.07
2018-06-13T08:01:06.446Z,17.87
2018-06-13T08:02:06.512Z,18.10
2018-06-13T08:03:06.572Z,18.26
2018-06-13T08:04:06.636Z,18.46
2018-06-13T08:05:06.700Z,18.51
2018-06-13T08:06:06.762Z,18.25
2018-06-13T08:07:06.826Z,17.84
2018-06-13T08:08:06.890Z,17.51
2018-06-13T08:09:06.953Z,17.53
2018-06-13T08:10:07.018Z,17.51
2018-06-13T08:11:07.079Z,17.58
2018-06-13T08:12:07.143Z,17.57
2018-06-13T08:13:07.207Z,17.68
2018-06-13T08:14:07.273Z,17.47
2018-06-13T08:15:07.366Z,17.18
2018-06-13T08:16:07.849Z,17.25
2018-06-13T08:17:07.460Z,17.38
2018-06-13T08:18:07.522Z,17.46
2018-06-13T08:19:07.585Z,17.46
2018-06-13T08:20:07.648Z,17.43
2018-06-13T08:21:07.710Z,17.28
2018-06-13T08:22:07.774Z,17.10
2018-06-13T08:23:07.837Z,17.09
2018-06-13T08:24:07.900Z,17.18
2018-06-13T08:25:07.962Z,17.30
2018-06-13T08:26:08.075Z,17.32
2018-06-13T08:27:08.092Z,17.38
2018-06-13T08:28:08.150Z,17.35
2018-06-13T08:29:08.213Z,17.18
2018-06-13T08:30:08.275Z,17.32
2018-06-13T08:31:08.337Z,17.12
2018-06-13T08:32:08.434Z,16.85
2018-06-13T08:33:08.462Z,16.90
2018-06-13T08:34:08.525Z,16.95
2018-06-13T08:35:08.586Z,17.03
2018-06-13T08:36:08.648Z,17.06
2018-06-13T08:37:08.711Z,17.05
2018-06-13T08:38:08.774Z,16.99
2018-06-13T08:39:08.836Z,17.10
2018-06-13T08:40:08.898Z,17.28
2018-06-13T08:41:08.959Z,17.33
2018-06-13T08:42:09.022Z,17.53
2018-06-13T08:43:09.083Z,17.55
2018-06-13T08:44:09.146Z,17.58
2018-06-13T08:45:09.207Z,17.63
2018-06-13T08:46:09.271Z,17.62
2018-06-13T08:47:09.332Z,17.54
2018-06-13T08:48:09.395Z,17.47
2018-06-13T08:49:09.467Z,17.27
2018-06-13T08:50:09.520Z,17.09
2018-06-13T08:51:09.582Z,16.96
2018-06-13T08:52:09.644Z,16.98
2018-06-13T08:53:09.706Z,16.81
2018-06-13T08:54:09.779Z,16.92
2018-06-13T08:55:09.829Z,16.91
2018-06-13T08:56:09.892Z,17.05
2018-06-13T08:57:09.954Z,17.24
2018-06-13T08:58:10.017Z,17.28
2018-06-13T08:59:10.080Z,17.32
2018-06-13T09:00:10.145Z,17.43
2018-06-13T09:01:10.206Z,17.51
2018-06-13T09:02:10.265Z,17.57
2018-06-13T09:03:10.370Z,17.58
2018-06-13T09:04:10.390Z,17.57
2018-06-13T09:05:10.452Z,17.65
2018-06-13T09:06:10.514Z,17.70
2018-06-13T09:07:10.576Z,17.58
2018-06-13T09:08:10.638Z,17.83
2018-06-13T09:09:10.702Z,17.96
2018-06-13T09:10:10.764Z,18.11
2018-06-13T09:11:10.827Z,18.31
2018-06-13T09:12:10.889Z,18.25
2018-06-13T09:13:10.983Z,18.47
2018-06-13T09:14:11.016Z,18.72
2018-06-13T09:15:11.081Z,18.72
2018-06-13T09:16:11.141Z,18.96
2018-06-13T09:17:11.206Z,19.09
2018-06-13T09:18:11.269Z,18.91
2018-06-13T09:19:11.358Z,18.76
2018-06-13T09:20:11.412Z,18.51
2018-06-13T09:21:11.497Z,18.59
2018-06-13T09:22:11.525Z,18.75
2018-06-13T09:23:11.628Z,18.57
2018-06-13T09:24:11.684Z,18.29
2018-06-13T09:25:11.717Z,18.13
2018-06-13T09:26:11.791Z,18.16
2018-06-13T09:27:12.176Z,17.98
2018-06-13T09:28:11.943Z,17.47
2018-06-13T09:29:12.006Z,17.24
2018-06-13T09:30:12.116Z,17.18
2018-06-13T09:31:12.170Z,17.28
2018-06-13T09:32:12.163Z,17.35
2018-06-13T09:33:12.228Z,17.09
2018-06-13T09:34:12.291Z,17.09
2018-06-13T09:35:13.183Z,16.96
2018-06-13T09:36:12.417Z,16.98
2018-06-13T09:37:12.480Z,16.98
2018-06-13T09:38:12.544Z,17.06
2018-06-13T09:39:12.607Z,16.91
2018-06-13T09:40:12.670Z,17.02
2018-06-13T09:41:12.732Z,16.95
2018-06-13T09:42:12.795Z,17.00
2018-06-13T09:43:12.856Z,16.96
2018-06-13T09:44:12.920Z,17.05
2018-06-13T09:45:12.987Z,17.06
2018-06-13T09:46:13.048Z,17.24
2018-06-13T09:47:15.131Z,17.27
2018-06-13T09:48:13.169Z,17.30
2018-06-13T09:49:13.233Z,17.06
2018-06-13T09:50:13.296Z,17.12
2018-06-13T09:51:13.356Z,17.07
2018-06-13T09:52:13.422Z,16.96
2018-06-13T09:53:13.481Z,17.15
2018-06-13T09:54:13.544Z,17.18
2018-06-13T09:55:13.606Z,17.28
2018-06-13T09:56:13.668Z,17.40
2018-06-13T09:57:13.749Z,17.47
2018-06-13T09:58:13.793Z,17.51
2018-06-13T09:59:13.854Z,17.73
2018-06-13T10:00:13.924Z,17.55
2018-06-13T10:01:13.980Z,17.62
2018-06-13T10:02:14.085Z,17.55
2018-06-13T10:03:14.103Z,17.57
2018-06-13T10:04:14.164Z,17.63
2018-06-13T10:05:14.228Z,17.51
2018-06-13T10:06:14.293Z,17.60
2018-06-13T10:07:14.351Z,17.77
2018-06-13T10:08:14.414Z,17.86
2018-06-13T10:09:14.478Z,17.94
2018-06-13T10:10:14.540Z,17.65
2018-06-13T10:11:14.662Z,17.79
2018-06-13T10:12:15.031Z,17.73
2018-06-13T10:13:14.729Z,17.87
2018-06-13T10:14:14.791Z,17.98
2018-06-13T10:15:14.853Z,18.10
2018-06-13T10:16:14.917Z,18.13
2018-06-13T10:17:14.980Z,18.11
2018-06-13T10:18:15.043Z,18.19
2018-06-13T10:19:15.158Z,18.11
2018-06-13T10:20:15.169Z,17.99
2018-06-13T10:21:15.234Z,17.77
2018-06-13T10:22:15.308Z,17.86
2018-06-13T10:23:15.360Z,17.65
2018-06-13T10:24:15.421Z,17.55
2018-06-13T10:25:15.484Z,17.63
2018-06-13T10:26:15.547Z,17.76
2018-06-13T10:27:15.612Z,17.83
2018-06-13T10:28:15.673Z,17.77
2018-06-13T10:29:15.737Z,17.51
2018-06-13T10:30:15.799Z,17.47
2018-06-13T10:31:15.866Z,17.57
2018-06-13T10:32:15.925Z,17.35
2018-06-13T10:33:15.987Z,17.38
2018-06-13T10:34:16.095Z,17.46
2018-06-13T10:35:16.113Z,17.54
2018-06-13T10:36:16.177Z,17.47
2018-06-13T10:37:16.239Z,17.49
2018-06-13T10:38:16.304Z,17.46
2018-06-13T10:39:16.365Z,17.46
2018-06-13T10:40:16.427Z,17.47
2018-06-13T10:41:16.489Z,17.58
2018-06-13T10:42:16.552Z,17.49
2018-06-13T10:43:16.616Z,17.51
2018-06-13T10:44:16.677Z,17.57
2018-06-13T10:45:16.739Z,17.39
2018-06-13T10:46:16.805Z,17.51
2018-06-13T10:47:16.866Z,17.55
2018-06-13T10:48:16.926Z,17.21
2018-06-13T10:49:16.992Z,17.18
2018-06-13T10:50:17.050Z,17.30
2018-06-13T10:51:17.113Z,17.38
2018-06-13T10:52:17.174Z,17.40
2018-06-13T10:53:17.237Z,17.54
2018-06-13T10:54:17.303Z,17.49
2018-06-13T10:55:17.363Z,17.46
2018-06-13T10:56:17.425Z,17.60
2018-06-13T10:57:17.487Z,17.62
2018-06-13T10:58:17.950Z,17.76
2018-06-13T10:59:17.611Z,17.81
2018-06-13T11:00:18.057Z,17.86
2018-06-13T11:01:17.766Z,17.91
2018-06-13T11:02:17.818Z,18.13
2018-06-13T11:03:18.211Z,18.14
2018-06-13T11:04:17.953Z,17.89
2018-06-13T11:05:18.006Z,17.81
2018-06-13T11:06:18.068Z,17.83
2018-06-13T11:07:18.144Z,17.96
2018-06-13T11:08:18.195Z,18.28
2018-06-13T11:09:18.617Z,18.23
2018-06-13T11:10:18.301Z,18.38
2018-06-13T11:11:18.362Z,18.51
2018-06-13T11:12:18.428Z,18.62
2018-06-13T11:13:18.496Z,18.71
2018-06-13T11:14:18.553Z,18.75
2018-06-13T11:15:18.616Z,18.54
2018-06-13T11:16:18.679Z,18.72
2018-06-13T11:17:18.743Z,18.62
2018-06-13T11:18:18.806Z,18.56
2018-06-13T11:19:18.869Z,18.49
2018-06-13T11:20:18.940Z,18.42
2018-06-13T11:21:19.002Z,18.10
2018-06-13T11:22:19.058Z,17.86
2018-06-13T11:23:19.124Z,17.79
2018-06-13T11:24:19.192Z,17.71
2018-06-13T11:25:19.249Z,17.77
2018-06-13T11:26:19.314Z,17.89
2018-06-13T11:27:19.375Z,17.86
2018-06-13T11:28:19.438Z,17.84
2018-06-13T11:29:19.502Z,17.89
2018-06-13T11:30:19.564Z,17.84
2018-06-13T11:31:19.628Z,17.91
2018-06-13T11:32:19.720Z,17.87
2018-06-13T11:33:19.787Z,17.84
2018-06-13T11:34:19.848Z,17.76
2018-06-13T11:35:19.879Z,17.86
2018-06-13T11:36:19.942Z,17.70
2018-06-13T11:37:20.007Z,17.57
2018-06-13T11:38:20.070Z,17.68
2018-06-13T11:39:20.130Z,17.77
2018-06-13T11:40:20.194Z,17.79
2018-06-13T11:41:20.265Z,17.84
2018-06-13T11:42:20.320Z,17.94
2018-06-13T11:43:20.382Z,18.09
2018-06-13T11:44:20.447Z,18.10
2018-06-13T11:45:20.510Z,18.19
2018-06-13T11:46:20.572Z,18.29
2018-06-13T11:47:20.635Z,18.35
2018-06-13T11:48:20.699Z,18.47
2018-06-13T11:49:20.762Z,18.57
2018-06-13T11:50:20.827Z,18.71
2018-06-13T11:51:20.888Z,18.83
2018-06-13T11:52:20.952Z,18.79
2018-06-13T11:53:21.523Z,18.79
2018-06-13T11:54:21.079Z,18.87
2018-06-13T11:55:21.142Z,18.99
2018-06-13T11:56:21.206Z,18.72
2018-06-13T11:57:21.280Z,18.79
2018-06-13T11:58:21.333Z,18.84
2018-06-13T11:59:21.398Z,18.78
2018-06-13T12:00:21.524Z,18.71
2018-06-13T12:01:21.525Z,18.75
2018-06-13T12:02:21.590Z,18.86
2018-06-13T12:03:21.652Z,18.75
2018-06-13T12:04:21.715Z,18.84
2018-06-13T12:05:21.781Z,18.84
2018-06-13T12:06:21.845Z,18.93
2018-06-13T12:07:21.907Z,18.79
2018-06-13T12:08:21.971Z,18.71
2018-06-13T12:09:22.036Z,18.64
2018-06-13T12:10:22.100Z,18.54
2018-06-13T12:11:22.200Z,18.64
2018-06-13T12:12:22.228Z,18.46
2018-06-13T12:13:22.291Z,18.53
2018-06-13T12:14:22.356Z,18.29
2018-06-13T12:15:22.419Z,18.32
2018-06-13T12:16:22.486Z,18.20
2018-06-13T12:17:22.548Z,18.29
2018-06-13T12:18:22.611Z,18.32
2018-06-13T12:19:22.678Z,18.32
2018-06-13T12:20:22.740Z,18.41
2018-06-13T12:21:23.214Z,18.46
2018-06-13T12:22:22.866Z,18.10
2018-06-13T12:23:22.929Z,18.11
2018-06-13T12:24:22.992Z,18.10
2018-06-13T12:25:23.057Z,18.29
2018-06-13T12:26:23.121Z,18.31
2018-06-13T12:27:23.184Z,18.31
2018-06-13T12:28:23.249Z,18.34
2018-06-13T12:29:23.317Z,18.34
2018-06-13T12:30:23.376Z,18.20
2018-06-13T12:31:23.438Z,18.23
2018-06-13T12:32:23.502Z,18.28
2018-06-13T12:33:23.565Z,18.42
2018-06-13T12:34:23.631Z,18.78
2018-06-13T12:35:23.693Z,18.84
2018-06-13T12:36:23.758Z,19.09
2018-06-13T12:37:23.821Z,18.84
2018-06-13T12:38:23.886Z,18.71
2018-06-13T12:39:23.947Z,18.69
2018-06-13T12:40:24.011Z,18.62
2018-06-13T12:41:24.076Z,18.65
2018-06-13T12:42:24.291Z,18.74
2018-06-13T12:43:24.203Z,18.75
2018-06-13T12:44:24.269Z,18.78
2018-06-13T12:45:24.370Z,18.82
2018-06-13T12:46:24.394Z,18.79
2018-06-13T12:47:24.456Z,18.79
2018-06-13T12:48:25.269Z,18.82
2018-06-13T12:49:24.584Z,18.74
2018-06-13T12:50:24.654Z,18.78
2018-06-13T12:51:24.743Z,18.82
2018-06-13T12:52:24.775Z,18.76
2018-06-13T12:53:24.841Z,18.93
2018-06-13T12:54:25.154Z,19.02